KHSP/HSP METAR and TAF weather

Enter ICAO airport designator
Station Type Date Time Source
KHSP METAR 2019/08/23 17:34 UTC NOAA

KHSP 231734Z AUTO 25009G14KT 1 1/4SM -RA BKN002 OVC007 18/18 A3015 RMK AO2 LTG DSNT SW THRU N P0010


Station Type Date Time Source
KHSP Decoded METAR 2019/08/23 17:34 UTC NOAA

Station name not available
Aug 23, 2019 - 01:34 PM EDT / 2019.08.23 1734 UTC
Wind: from the WSW (250 degrees) at 10 MPH (9 KT) gusting to 16 MPH (14 KT):0
Visibility: 1 1/4 mile(s):0
Sky conditions: overcast
Weather: light rain; Lightning observed
Precipitation last hour: 0.10 inches
Temperature: 64 F (18 C)
Dew Point: 64 F (18 C)
Relative Humidity: 100%
Pressure (altimeter): 30.15 in. Hg (1020 hPa)
ob: KHSP 231734Z AUTO 25009G14KT 1 1/4SM -RA BKN002 OVC007 18/18 A3015 RMK AO2 LTG DSNT SW THRU N P0010
cycle: 17

Station Type Date Time Source
KHSP TAF UTC NOAA

Error!

Example: see airport list